Kezdőlap
METAR-TAF:

METAR-TAF

Repülőterek :

Algír, Algéria

földrajzi szélesség: 36-43N, földrajzi hosszúság: 003-15E, magasság: 25 m

Jelenlegi meteorológiai megfigyelések

A jelentés 22 perccel ezelõtt készült, 01:30 UTC
Dél-délkeleti szél 2 kt
Hőmérséklet 7°C
Páratartalom 93%
Légköri nyomás 1025 hPa
Látótávolság 10 km, vagy több
felhőtlen 1500 m magasságban, és nincs gomolyfelhõ

METAR: DAAG 230130Z 16002KT CAVOK 07/06 Q1025

Idő: 02:52 (01:52 UTC)

Előrejelzés

A jelentés 2 órával és 52 perccel ezelõtt készült, 23:00 UTC
Az előrejelzés 23-én 00 óra UTC és 23-én 24 óra UTC között érvényes
Különbözõ irányokból fújó szél 2 kt
Látótávolság 10 km, vagy több
felhőtlen 1500 m magasságban, és nincs gomolyfelhõ

TAF: DAAG 222300Z 2300/2324 VRB02KT CAVOK

Meteorológiai megfigyelések és előrejelzések több, mint 4000 repülőtéren (METAR és TAF jelentéseket).

A térképen piros és sárga pontok jelzik az elérhető meteorológiai állomásokat.

Mozgassa az egeret a pont fölött, hogy megjelenjen az állomás neve.

Azután kattintson az időjárási megfigyelések és előrejelzések megtekintéséhez.

A térkép megváltoztatása: kattintson a fekete keresztel jelölt zöld gombra ráközelítéshez, a vonallal jelölt zöld gombra távolításhoz, vagy a zöld nyilakra a szomszédos térképek eléréséhez.


METAR-TAF: